sensor_id;sensor_type;location;lat;lon;timestamp;P1;durP1;ratioP1;P2;durP2;ratioP2
7753;SDS011;3921;42.266;23.122;2023-02-15T00:01:50;26.17;;;16.70;;
7753;SDS011;3921;42.266;23.122;2023-02-15T00:06:53;24.83;;;16.77;;
7753;SDS011;3921;42.266;23.122;2023-02-15T00:09:21;27.40;;;16.73;;
7753;SDS011;3921;42.266;23.122;2023-02-15T00:11:49;28.47;;;16.00;;
7753;SDS011;3921;42.266;23.122;2023-02-15T00:14:17;24.67;;;15.63;;
7753;SDS011;3921;42.266;23.122;2023-02-15T00:16:48;25.50;;;16.37;;
7753;SDS011;3921;42.266;23.122;2023-02-15T00:19:16;27.13;;;16.73;;
7753;SDS011;3921;42.266;23.122;2023-02-15T00:21:44;26.80;;;16.70;;
7753;SDS011;3921;42.266;23.122;2023-02-15T00:24:12;26.00;;;16.43;;
7753;SDS011;3921;42.266;23.122;2023-02-15T00:26:41;29.90;;;16.77;;
7753;SDS011;3921;42.266;23.122;2023-02-15T00:29:09;30.77;;;16.87;;
7753;SDS011;3921;42.266;23.122;2023-02-15T00:31:38;28.07;;;17.87;;
7753;SDS011;3921;42.266;23.122;2023-02-15T00:34:09;28.20;;;18.37;;
7753;SDS011;3921;42.266;23.122;2023-02-15T00:36:38;28.77;;;17.63;;
7753;SDS011;3921;42.266;23.122;2023-02-15T00:39:09;27.63;;;16.83;;
7753;SDS011;3921;42.266;23.122;2023-02-15T00:41:36;29.67;;;18.47;;
7753;SDS011;3921;42.266;23.122;2023-02-15T00:44:04;28.13;;;17.00;;
7753;SDS011;3921;42.266;23.122;2023-02-15T00:46:35;28.90;;;17.97;;
7753;SDS011;3921;42.266;23.122;2023-02-15T00:49:03;30.00;;;17.43;;
7753;SDS011;3921;42.266;23.122;2023-02-15T00:51:32;29.87;;;17.00;;
7753;SDS011;3921;42.266;23.122;2023-02-15T00:53:59;31.27;;;18.57;;
7753;SDS011;3921;42.266;23.122;2023-02-15T00:56:26;27.20;;;17.67;;
7753;SDS011;3921;42.266;23.122;2023-02-15T00:58:54;28.60;;;17.23;;
7753;SDS011;3921;42.266;23.122;2023-02-15T01:01:21;31.20;;;18.07;;
7753;SDS011;3921;42.266;23.122;2023-02-15T01:03:50;29.27;;;17.40;;
7753;SDS011;3921;42.266;23.122;2023-02-15T01:06:32;27.50;;;17.57;;
7753;SDS011;3921;42.266;23.122;2023-02-15T01:08:59;27.03;;;16.50;;
7753;SDS011;3921;42.266;23.122;2023-02-15T01:11:27;25.33;;;16.03;;
7753;SDS011;3921;42.266;23.122;2023-02-15T01:13:56;28.00;;;16.50;;
7753;SDS011;3921;42.266;23.122;2023-02-15T01:16:25;29.07;;;17.00;;
7753;SDS011;3921;42.266;23.122;2023-02-15T01:18:54;23.60;;;15.77;;
7753;SDS011;3921;42.266;23.122;2023-02-15T01:21:24;25.37;;;15.70;;
7753;SDS011;3921;42.266;23.122;2023-02-15T01:23:57;23.87;;;15.93;;
7753;SDS011;3921;42.266;23.122;2023-02-15T01:26:32;24.60;;;15.80;;
7753;SDS011;3921;42.266;23.122;2023-02-15T01:28:59;26.23;;;16.43;;
7753;SDS011;3921;42.266;23.122;2023-02-15T01:31:27;26.13;;;16.47;;
7753;SDS011;3921;42.266;23.122;2023-02-15T01:33:57;20.90;;;14.43;;
7753;SDS011;3921;42.266;23.122;2023-02-15T01:36:35;25.23;;;15.53;;
7753;SDS011;3921;42.266;23.122;2023-02-15T01:42:29;27.87;;;15.87;;
7753;SDS011;3921;42.266;23.122;2023-02-15T01:44:57;26.50;;;16.27;;
7753;SDS011;3921;42.266;23.122;2023-02-15T01:47:29;24.03;;;15.53;;
7753;SDS011;3921;42.266;23.122;2023-02-15T01:50:04;24.67;;;14.30;;
7753;SDS011;3921;42.266;23.122;2023-02-15T01:52:35;25.10;;;14.97;;
7753;SDS011;3921;42.266;23.122;2023-02-15T01:55:06;23.60;;;15.07;;
7753;SDS011;3921;42.266;23.122;2023-02-15T01:57:35;25.00;;;15.33;;
7753;SDS011;3921;42.266;23.122;2023-02-15T02:00:03;27.83;;;15.63;;
7753;SDS011;3921;42.266;23.122;2023-02-15T02:02:32;23.53;;;15.57;;
7753;SDS011;3921;42.266;23.122;2023-02-15T02:05:00;25.27;;;15.30;;
7753;SDS011;3921;42.266;23.122;2023-02-15T02:07:32;24.93;;;16.00;;
7753;SDS011;3921;42.266;23.122;2023-02-15T02:10:04;27.20;;;15.83;;
7753;SDS011;3921;42.266;23.122;2023-02-15T02:12:33;23.43;;;15.20;;
7753;SDS011;3921;42.266;23.122;2023-02-15T02:15:04;24.77;;;15.77;;
7753;SDS011;3921;42.266;23.122;2023-02-15T02:17:40;25.50;;;15.67;;
7753;SDS011;3921;42.266;23.122;2023-02-15T02:20:26;26.10;;;16.63;;
7753;SDS011;3921;42.266;23.122;2023-02-15T02:23:08;25.07;;;15.90;;
7753;SDS011;3921;42.266;23.122;2023-02-15T02:38:00;25.10;;;15.10;;
7753;SDS011;3921;42.266;23.122;2023-02-15T02:43:17;25.20;;;15.27;;
7753;SDS011;3921;42.266;23.122;2023-02-15T02:45:56;26.27;;;15.43;;
7753;SDS011;3921;42.266;23.122;2023-02-15T02:48:38;24.13;;;14.57;;
7753;SDS011;3921;42.266;23.122;2023-02-15T02:51:18;24.10;;;14.87;;
7753;SDS011;3921;42.266;23.122;2023-02-15T02:53:53;23.37;;;13.90;;
7753;SDS011;3921;42.266;23.122;2023-02-15T02:56:29;24.20;;;14.80;;
7753;SDS011;3921;42.266;23.122;2023-02-15T02:59:04;22.37;;;13.60;;
7753;SDS011;3921;42.266;23.122;2023-02-15T03:01:42;23.10;;;14.63;;
7753;SDS011;3921;42.266;23.122;2023-02-15T03:04:14;21.17;;;14.00;;
7753;SDS011;3921;42.266;23.122;2023-02-15T03:06:46;22.37;;;13.87;;
7753;SDS011;3921;42.266;23.122;2023-02-15T03:09:21;21.70;;;13.77;;
7753;SDS011;3921;42.266;23.122;2023-02-15T03:12:06;22.70;;;14.10;;
7753;SDS011;3921;42.266;23.122;2023-02-15T03:14:35;21.40;;;13.80;;
7753;SDS011;3921;42.266;23.122;2023-02-15T03:17:02;21.77;;;13.73;;
7753;SDS011;3921;42.266;23.122;2023-02-15T03:19:32;19.73;;;13.30;;
7753;SDS011;3921;42.266;23.122;2023-02-15T03:22:04;21.80;;;13.03;;
7753;SDS011;3921;42.266;23.122;2023-02-15T03:24:37;20.77;;;13.67;;
7753;SDS011;3921;42.266;23.122;2023-02-15T03:27:09;24.27;;;14.67;;
7753;SDS011;3921;42.266;23.122;2023-02-15T03:29:42;24.50;;;14.97;;
7753;SDS011;3921;42.266;23.122;2023-02-15T03:32:11;23.50;;;14.07;;
7753;SDS011;3921;42.266;23.122;2023-02-15T03:34:41;24.13;;;14.67;;
7753;SDS011;3921;42.266;23.122;2023-02-15T03:37:10;23.27;;;15.20;;
7753;SDS011;3921;42.266;23.122;2023-02-15T03:39:44;22.90;;;13.87;;
7753;SDS011;3921;42.266;23.122;2023-02-15T03:42:16;23.70;;;13.57;;
7753;SDS011;3921;42.266;23.122;2023-02-15T03:44:49;23.57;;;14.77;;
7753;SDS011;3921;42.266;23.122;2023-02-15T03:47:20;25.50;;;14.50;;
7753;SDS011;3921;42.266;23.122;2023-02-15T03:49:52;23.50;;;15.27;;
7753;SDS011;3921;42.266;23.122;2023-02-15T03:52:22;24.93;;;14.70;;
7753;SDS011;3921;42.266;23.122;2023-02-15T03:54:54;24.60;;;14.53;;
7753;SDS011;3921;42.266;23.122;2023-02-15T03:57:22;24.10;;;14.73;;
7753;SDS011;3921;42.266;23.122;2023-02-15T04:00:12;23.40;;;14.57;;
7753;SDS011;3921;42.266;23.122;2023-02-15T04:05:33;24.70;;;14.37;;
7753;SDS011;3921;42.266;23.122;2023-02-15T04:08:02;23.37;;;14.90;;
7753;SDS011;3921;42.266;23.122;2023-02-15T04:10:47;26.20;;;15.27;;
7753;SDS011;3921;42.266;23.122;2023-02-15T04:13:34;23.13;;;13.90;;
7753;SDS011;3921;42.266;23.122;2023-02-15T04:16:03;25.00;;;15.33;;
7753;SDS011;3921;42.266;23.122;2023-02-15T04:18:29;25.63;;;15.30;;
7753;SDS011;3921;42.266;23.122;2023-02-15T04:21:14;27.43;;;17.27;;
7753;SDS011;3921;42.266;23.122;2023-02-15T04:23:59;33.67;;;18.03;;
7753;SDS011;3921;42.266;23.122;2023-02-15T04:37:13;39.87;;;21.33;;
7753;SDS011;3921;42.266;23.122;2023-02-15T04:39:42;38.30;;;20.50;;
7753;SDS011;3921;42.266;23.122;2023-02-15T04:42:23;40.80;;;22.47;;
7753;SDS011;3921;42.266;23.122;2023-02-15T04:45:03;36.77;;;21.50;;
7753;SDS011;3921;42.266;23.122;2023-02-15T04:47:31;41.30;;;23.70;;
7753;SDS011;3921;42.266;23.122;2023-02-15T04:50:52;45.53;;;23.90;;
7753;SDS011;3921;42.266;23.122;2023-02-15T04:53:33;39.43;;;22.53;;
7753;SDS011;3921;42.266;23.122;2023-02-15T04:56:04;37.53;;;23.20;;
7753;SDS011;3921;42.266;23.122;2023-02-15T04:58:33;39.40;;;22.20;;
7753;SDS011;3921;42.266;23.122;2023-02-15T05:01:02;45.43;;;25.03;;
7753;SDS011;3921;42.266;23.122;2023-02-15T05:17:19;36.20;;;22.60;;
7753;SDS011;3921;42.266;23.122;2023-02-15T05:19:48;37.07;;;20.60;;
7753;SDS011;3921;42.266;23.122;2023-02-15T05:22:16;35.97;;;20.00;;
7753;SDS011;3921;42.266;23.122;2023-02-15T05:24:43;36.33;;;20.70;;
7753;SDS011;3921;42.266;23.122;2023-02-15T05:27:47;35.23;;;20.80;;
7753;SDS011;3921;42.266;23.122;2023-02-15T05:30:40;36.10;;;20.53;;
7753;SDS011;3921;42.266;23.122;2023-02-15T05:33:10;37.67;;;22.27;;
7753;SDS011;3921;42.266;23.122;2023-02-15T05:35:37;39.43;;;23.13;;
7753;SDS011;3921;42.266;23.122;2023-02-15T05:38:05;37.67;;;21.47;;
7753;SDS011;3921;42.266;23.122;2023-02-15T05:40:32;39.47;;;22.67;;
7753;SDS011;3921;42.266;23.122;2023-02-15T05:42:59;43.43;;;24.27;;
7753;SDS011;3921;42.266;23.122;2023-02-15T05:45:26;44.27;;;25.30;;
7753;SDS011;3921;42.266;23.122;2023-02-15T05:47:53;42.30;;;23.87;;
7753;SDS011;3921;42.266;23.122;2023-02-15T05:50:25;40.73;;;23.43;;
7753;SDS011;3921;42.266;23.122;2023-02-15T07:22:00;52.13;;;29.13;;
7753;SDS011;3921;42.266;23.122;2023-02-15T07:24:28;47.70;;;26.87;;
7753;SDS011;3921;42.266;23.122;2023-02-15T07:30:07;50.23;;;27.87;;
7753;SDS011;3921;42.266;23.122;2023-02-15T07:38:00;44.73;;;26.23;;
7753;SDS011;3921;42.266;23.122;2023-02-15T07:40:28;43.40;;;24.70;;
7753;SDS011;3921;42.266;23.122;2023-02-15T07:48:10;45.30;;;25.70;;
7753;SDS011;3921;42.266;23.122;2023-02-15T07:50:40;40.00;;;24.40;;
7753;SDS011;3921;42.266;23.122;2023-02-15T07:53:12;41.40;;;25.03;;
7753;SDS011;3921;42.266;23.122;2023-02-15T07:55:39;41.97;;;25.40;;
7753;SDS011;3921;42.266;23.122;2023-02-15T08:00:45;43.13;;;26.97;;
7753;SDS011;3921;42.266;23.122;2023-02-15T08:50:43;42.87;;;23.77;;
7753;SDS011;3921;42.266;23.122;2023-02-15T08:53:11;43.30;;;23.70;;
7753;SDS011;3921;42.266;23.122;2023-02-15T08:55:40;46.73;;;23.87;;
7753;SDS011;3921;42.266;23.122;2023-02-15T15:53:40;34.17;;;20.33;;
7753;SDS011;3921;42.266;23.122;2023-02-15T15:58:54;51.87;;;29.87;;
7753;SDS011;3921;42.266;23.122;2023-02-15T16:01:54;46.90;;;28.23;;
7753;SDS011;3921;42.266;23.122;2023-02-15T16:04:22;49.07;;;28.83;;
7753;SDS011;3921;42.266;23.122;2023-02-15T16:12:45;40.43;;;23.30;;
7753;SDS011;3921;42.266;23.122;2023-02-15T16:15:31;41.40;;;24.20;;
7753;SDS011;3921;42.266;23.122;2023-02-15T16:18:16;47.50;;;28.00;;
7753;SDS011;3921;42.266;23.122;2023-02-15T16:55:18;43.00;;;24.47;;
7753;SDS011;3921;42.266;23.122;2023-02-15T16:57:48;32.10;;;19.97;;
7753;SDS011;3921;42.266;23.122;2023-02-15T17:02:55;35.70;;;20.63;;
7753;SDS011;3921;42.266;23.122;2023-02-15T17:05:30;32.10;;;19.10;;
7753;SDS011;3921;42.266;23.122;2023-02-15T17:08:11;30.83;;;19.63;;
7753;SDS011;3921;42.266;23.122;2023-02-15T17:10:44;34.80;;;20.90;;
7753;SDS011;3921;42.266;23.122;2023-02-15T17:16:09;41.90;;;21.50;;
7753;SDS011;3921;42.266;23.122;2023-02-15T17:18:49;37.50;;;22.07;;
7753;SDS011;3921;42.266;23.122;2023-02-15T17:21:19;42.70;;;21.60;;
7753;SDS011;3921;42.266;23.122;2023-02-15T17:23:58;31.17;;;19.60;;
7753;SDS011;3921;42.266;23.122;2023-02-15T17:26:29;34.30;;;21.30;;
7753;SDS011;3921;42.266;23.122;2023-02-15T17:28:58;31.70;;;19.87;;
7753;SDS011;3921;42.266;23.122;2023-02-15T17:31:29;62.43;;;31.03;;
7753;SDS011;3921;42.266;23.122;2023-02-15T17:34:00;92.90;;;43.50;;
7753;SDS011;3921;42.266;23.122;2023-02-15T17:36:28;72.00;;;38.70;;
7753;SDS011;3921;42.266;23.122;2023-02-15T17:39:03;81.23;;;39.40;;
7753;SDS011;3921;42.266;23.122;2023-02-15T17:41:46;73.17;;;36.40;;
7753;SDS011;3921;42.266;23.122;2023-02-15T17:46:53;50.60;;;29.57;;
7753;SDS011;3921;42.266;23.122;2023-02-15T17:49:24;56.50;;;32.10;;
7753;SDS011;3921;42.266;23.122;2023-02-15T17:52:04;50.37;;;29.93;;
7753;SDS011;3921;42.266;23.122;2023-02-15T17:54:37;53.40;;;31.87;;
7753;SDS011;3921;42.266;23.122;2023-02-15T17:57:23;46.27;;;29.23;;
7753;SDS011;3921;42.266;23.122;2023-02-15T18:00:12;64.03;;;35.37;;
7753;SDS011;3921;42.266;23.122;2023-02-15T18:21:10;116.00;;;48.97;;
7753;SDS011;3921;42.266;23.122;2023-02-15T18:23:40;105.63;;;46.40;;
7753;SDS011;3921;42.266;23.122;2023-02-15T18:54:36;48.17;;;29.10;;
7753;SDS011;3921;42.266;23.122;2023-02-15T18:59:53;46.77;;;27.30;;
7753;SDS011;3921;42.266;23.122;2023-02-15T19:06:02;46.40;;;26.87;;
7753;SDS011;3921;42.266;23.122;2023-02-15T19:54:01;98.50;;;49.70;;
7753;SDS011;3921;42.266;23.122;2023-02-15T20:02:01;78.03;;;42.43;;
7753;SDS011;3921;42.266;23.122;2023-02-15T20:04:39;83.77;;;44.53;;
7753;SDS011;3921;42.266;23.122;2023-02-15T20:24:27;158.73;;;68.17;;
7753;SDS011;3921;42.266;23.122;2023-02-15T20:53:25;95.90;;;46.70;;
